Time;durP1;ratioP1;P1;durP2;ratioP2;P2;SDS_P1;SDS_P2;PMS_P1;PMS_P2;Temp;Humidity;BMP_temperature;BMP_pressure;BME280_temperature;BME280_humidity;BME280_pressure;Samples;Min_cycle;Max_cycle;Signal;HPM_P1;HPM_P2
2022/09/21 00:02:26;;;;;;;17.75;9.90;;;;;;;8.89;100.00;99435.94;4970963;28;20422;-45
2022/09/21 00:04:53;;;;;;;17.27;9.38;;;;;;;8.86;100.00;99439.47;4952426;28;20042;-44
2022/09/21 00:07:19;;;;;;;23.73;9.88;;;;;;;8.85;100.00;99429.13;4953795;28;20491;-44
2022/09/21 00:09:45;;;;;;;24.08;9.70;;;;;;;8.73;100.00;99414.84;4952755;28;20129;-44
2022/09/21 00:12:11;;;;;;;24.33;10.40;;;;;;;8.90;100.00;99437.63;4968651;28;20046;-44
2022/09/21 00:14:37;;;;;;;19.65;9.80;;;;;;;8.78;100.00;99418.13;4969065;28;20046;-43
2022/09/21 00:17:03;;;;;;;23.63;11.23;;;;;;;8.91;100.00;99432.41;4951937;28;20100;-44
2022/09/21 00:19:29;;;;;;;22.33;11.50;;;;;;;8.88;100.00;99432.50;4969124;28;20537;-45
2022/09/21 00:21:56;;;;;;;21.65;13.20;;;;;;;8.89;100.00;99443.72;4970030;28;20050;-48
2022/09/21 00:24:22;;;;;;;20.55;10.60;;;;;;;8.88;100.00;99440.28;4962895;28;20042;-44
2022/09/21 00:26:47;;;;;;;20.20;10.38;;;;;;;8.87;100.00;99448.94;4970443;28;20051;-44
2022/09/21 00:29:13;;;;;;;20.00;9.95;;;;;;;8.85;100.00;99450.72;4969871;28;20403;-44
2022/09/21 00:31:39;;;;;;;18.92;10.70;;;;;;;8.84;100.00;99443.88;4936981;28;20777;-44
2022/09/21 00:34:08;;;;;;;18.30;10.23;;;;;;;8.71;100.00;99427.00;4968711;28;20074;-43
2022/09/21 00:36:34;;;;;;;18.50;9.87;;;;;;;8.84;100.00;99445.63;4969640;28;20631;-46
2022/09/21 00:39:05;;;;;;;22.10;10.52;;;;;;;8.83;100.00;99449.94;4970821;28;20282;-44
2022/09/21 00:41:32;;;;;;;21.55;9.90;;;;;;;8.84;100.00;99451.66;4968336;28;20042;-45
2022/09/21 00:44:26;;;;;;;46.60;18.15;;;;;;;8.87;100.00;99450.69;4947588;29;20055;-45
2022/09/21 00:46:54;;;;;;;22.05;10.10;;;;;;;8.88;100.00;99450.66;4950171;28;20247;-46
2022/09/21 00:49:20;;;;;;;21.75;10.18;;;;;;;8.90;100.00;99460.94;4951249;28;20039;-44
2022/09/21 00:51:48;;;;;;;21.17;10.70;;;;;;;8.91;100.00;99460.91;4949719;29;20047;-43
2022/09/21 00:54:22;;;;;;;20.50;11.07;;;;;;;8.95;100.00;99456.47;4949557;29;20039;-44
2022/09/21 00:56:48;;;;;;;23.75;11.27;;;;;;;8.97;100.00;99441.72;4948784;28;20074;-45
2022/09/21 00:59:15;;;;;;;20.45;10.60;;;;;;;8.98;100.00;99440.84;4933964;29;20193;-43
2022/09/21 01:01:41;;;;;;;21.75;10.85;;;;;;;8.75;100.00;99400.06;4950326;28;20043;-47
2022/09/21 01:04:10;;;;;;;19.92;11.27;;;;;;;9.04;100.00;99445.84;4950678;28;20035;-42
2022/09/21 01:06:37;;;;;;;22.48;11.38;;;;;;;8.87;100.00;99415.25;4948922;29;20141;-44
2022/09/21 01:09:03;;;;;;;19.75;10.15;;;;;;;9.04;100.00;99438.06;4949339;28;20798;-43
2022/09/21 01:11:48;;;;;;;16.77;10.55;;;;;;;9.08;100.00;99443.97;4931433;29;20125;-42
2022/09/21 01:14:28;;;;;;;18.42;11.18;;;;;;;9.10;100.00;99452.56;4944298;29;20149;-43
2022/09/21 01:17:13;;;;;;;21.25;10.60;;;;;;;9.09;100.00;99445.69;4947427;29;20047;-44
2022/09/21 01:19:48;;;;;;;20.52;10.18;;;;;;;9.06;100.00;99450.94;4946915;29;20046;-45
2022/09/21 01:22:49;;;;;;;26.02;12.13;;;;;;;9.04;100.00;99455.34;4948809;28;20556;-45
2022/09/21 01:25:31;;;;;;;21.33;10.35;;;;;;;9.04;100.00;99452.75;4945595;29;20053;-45
2022/09/21 01:28:16;;;;;;;19.42;10.77;;;;;;;9.02;100.00;99452.81;4961101;28;20142;-46
2022/09/21 01:30:42;;;;;;;21.58;10.93;;;;;;;8.99;100.00;99452.91;4948877;29;20039;-44
2022/09/21 01:33:12;;;;;;;20.17;10.48;;;;;;;9.00;100.00;99449.44;4949048;29;20513;-46
2022/09/21 01:35:43;;;;;;;23.77;11.27;;;;;;;8.97;100.00;99446.91;4949445;29;20098;-44
2022/09/21 01:38:16;;;;;;;21.10;11.13;;;;;;;8.97;100.00;99448.66;4948289;29;20122;-46
2022/09/21 01:40:45;;;;;;;21.42;11.15;;;;;;;8.97;100.00;99456.44;4950372;28;20039;-43
2022/09/21 01:43:19;;;;;;;24.08;12.13;;;;;;;8.94;100.00;99447.03;4946991;29;20468;-44
2022/09/21 01:45:48;;;;;;;25.50;13.07;;;;;;;8.95;100.00;99458.25;4933486;29;20134;-42
2022/09/21 01:48:14;;;;;;;24.08;11.30;;;;;;;8.78;100.00;99427.66;4948394;29;20263;-42
2022/09/21 01:50:49;;;;;;;22.10;11.00;;;;;;;8.77;100.00;99426.81;4947943;29;20047;-46
2022/09/21 01:53:31;;;;;;;22.63;11.95;;;;;;;8.92;100.00;99451.41;4933728;29;20046;-48
2022/09/21 01:56:20;;;;;;;20.58;11.10;;;;;;;8.91;100.00;99450.53;4948980;29;20130;-45
2022/09/21 01:59:24;;;;;;;19.20;10.52;;;;;;;8.90;100.00;99456.63;4932928;29;20586;-45
2022/09/21 02:01:58;;;;;;;23.13;11.20;;;;;;;8.67;100.00;99422.81;4944999;29;20668;-44
2022/09/21 02:04:23;;;;;;;23.73;11.18;;;;;;;8.84;100.00;99454.25;4949632;28;20051;-44
2022/09/21 02:06:50;;;;;;;20.85;10.80;;;;;;;8.87;100.00;99458.47;4949934;28;20094;-43
2022/09/21 02:09:16;;;;;;;22.10;10.63;;;;;;;8.85;100.00;99455.91;4935555;29;20542;-44
2022/09/21 02:11:42;;;;;;;17.67;10.07;;;;;;;8.84;100.00;99459.44;4936362;29;20043;-47
2022/09/21 02:14:10;;;;;;;20.08;10.40;;;;;;;8.85;100.00;99462.84;4936388;29;20499;-43
2022/09/21 02:16:48;;;;;;;20.17;10.50;;;;;;;8.81;100.00;99458.66;4952132;29;20574;-46
2022/09/21 02:19:26;;;;;;;16.75;9.73;;;;;;;8.84;100.00;99469.81;4935384;29;20158;-49
2022/09/21 02:21:58;;;;;;;21.80;11.18;;;;;;;8.84;100.00;99461.16;4952479;29;20764;-44
2022/09/21 02:24:27;;;;;;;17.05;9.63;;;;;;;8.84;100.00;99462.03;4952744;29;20094;-45
2022/09/21 02:26:58;;;;;;;18.10;9.82;;;;;;;8.71;100.00;99445.13;4952194;29;20186;-47
2022/09/21 02:29:31;;;;;;;18.25;10.02;;;;;;;8.85;100.00;99465.44;4951625;28;20054;-47
2022/09/21 02:32:26;;;;;;;18.95;10.43;;;;;;;8.85;100.00;99470.63;4933738;29;20054;-45
2022/09/21 02:35:08;;;;;;;20.80;10.70;;;;;;;8.86;100.00;99468.00;4936169;29;20112;-43
2022/09/21 02:37:47;;;;;;;17.75;9.48;;;;;;;8.71;100.00;99444.28;4952842;29;20426;-44
2022/09/21 02:40:32;;;;;;;17.40;10.65;;;;;;;8.85;100.00;99478.41;4944920;28;20472;-48
2022/09/21 02:43:00;;;;;;;23.35;10.57;;;;;;;8.69;100.00;99446.09;4943951;28;20511;-43
2022/09/21 02:45:33;;;;;;;15.13;9.88;;;;;;;8.84;100.00;99476.72;4955445;28;20043;-46
2022/09/21 02:48:04;;;;;;;22.55;11.25;;;;;;;8.85;100.00;99473.22;4953019;28;20101;-45
2022/09/21 02:50:35;;;;;;;19.42;10.68;;;;;;;8.87;100.00;99476.63;4949152;28;20130;-48
2022/09/21 02:53:03;;;;;;;18.83;11.25;;;;;;;8.86;100.00;99475.75;4952501;28;20122;-45
2022/09/21 02:55:31;;;;;;;20.73;10.27;;;;;;;8.87;100.00;99482.66;4936083;29;20039;-45
2022/09/21 02:57:58;;;;;;;23.75;12.02;;;;;;;8.87;100.00;99477.47;4936495;29;20102;-45
2022/09/21 03:00:23;;;;;;;17.50;10.43;;;;;;;8.90;100.00;99471.31;4948734;28;20639;-43
2022/09/21 03:02:51;;;;;;;22.90;11.13;;;;;;;8.92;100.00;99472.13;4954049;28;20134;-44
2022/09/21 03:05:17;;;;;;;19.08;10.80;;;;;;;8.93;100.00;99469.50;4961959;28;20574;-44
2022/09/21 03:07:42;;;;;;;19.35;10.85;;;;;;;8.97;100.00;99472.00;4952495;28;20423;-45
2022/09/21 03:10:09;;;;;;;15.43;9.60;;;;;;;8.99;100.00;99472.81;4951282;28;20525;-46
2022/09/21 03:12:37;;;;;;;18.95;11.10;;;;;;;9.00;100.00;99470.16;4950467;28;20106;-46
2022/09/21 03:15:05;;;;;;;17.92;10.63;;;;;;;9.03;100.00;99471.81;4954188;28;20043;-45
2022/09/21 03:17:30;;;;;;;19.63;10.90;;;;;;;8.88;100.00;99444.63;4950582;28;20554;-46
2022/09/21 03:19:56;;;;;;;20.30;12.13;;;;;;;9.09;100.00;99477.66;4950440;28;20129;-45
2022/09/21 03:22:23;;;;;;;18.48;11.88;;;;;;;9.11;100.00;99478.44;4952629;28;20051;-46
2022/09/21 03:24:49;;;;;;;19.55;11.63;;;;;;;9.13;100.00;99471.47;4955708;28;20051;-43
2022/09/21 03:27:18;;;;;;;21.98;13.35;;;;;;;9.17;100.00;99474.81;4950737;28;20423;-46
2022/09/21 03:29:45;;;;;;;18.65;11.50;;;;;;;9.15;100.00;99467.09;4951855;28;20043;-47
2022/09/21 03:32:11;;;;;;;21.35;12.25;;;;;;;9.13;100.00;99455.06;4950777;28;20066;-48
2022/09/21 03:34:37;;;;;;;22.52;13.05;;;;;;;9.30;100.00;99474.38;4957878;28;20075;-48
2022/09/21 03:37:04;;;;;;;22.63;13.57;;;;;;;9.40;100.00;99477.50;4938635;28;20042;-48
2022/09/21 03:39:30;;;;;;;27.60;15.27;;;;;;;9.46;100.00;99481.66;4934870;29;20036;-43
2022/09/21 03:41:56;;;;;;;32.47;17.45;;;;;;;9.52;100.00;99473.66;4951464;29;20049;-45
2022/09/21 03:44:23;;;;;;;35.45;21.33;;;;;;;9.55;100.00;99474.41;4966412;28;20051;-45
2022/09/21 03:46:49;;;;;;;39.80;21.58;;;;;;;9.44;100.00;99440.19;4940600;28;20039;-45
2022/09/21 03:49:16;;;;;;;36.45;23.67;;;;;;;9.44;100.00;99441.91;4950804;28;20053;-44
2022/09/21 03:51:44;;;;;;;38.55;23.13;;;;;;;9.65;100.00;99474.94;4970261;28;20054;-45
2022/09/21 03:54:12;;;;;;;38.45;23.08;;;;;;;9.67;100.00;99466.22;4970153;28;20422;-46
2022/09/21 03:56:38;;;;;;;34.67;21.70;;;;;;;9.64;100.00;99452.47;4970535;28;20038;-45
2022/09/21 03:59:06;;;;;;;40.58;23.52;;;;;;;9.83;100.00;99465.69;4970496;28;20047;-43
2022/09/21 04:01:32;;;;;;;34.40;20.90;;;;;;;9.88;100.00;99463.78;4959993;28;20094;-44
2022/09/21 04:03:58;;;;;;;37.83;21.63;;;;;;;9.95;100.00;99465.22;4971420;28;20046;-44
2022/09/21 04:06:24;;;;;;;37.17;21.05;;;;;;;9.98;100.00;99458.19;4953416;28;20054;-45
2022/09/21 04:08:51;;;;;;;37.22;21.13;;;;;;;10.05;100.00;99462.25;4940895;28;20043;-44
2022/09/21 04:11:19;;;;;;;34.13;20.65;;;;;;;10.11;100.00;99464.63;4970725;28;20053;-48
2022/09/21 04:13:49;;;;;;;38.00;20.48;;;;;;;10.18;100.00;99462.72;4970193;28;20039;-47
2022/09/21 04:16:23;;;;;;;40.80;21.67;;;;;;;10.23;100.00;99465.13;4969788;28;20058;-48
2022/09/21 04:18:49;;;;;;;29.63;19.33;;;;;;;10.28;100.00;99468.41;4937358;28;20038;-47
2022/09/21 04:21:19;;;;;;;31.88;21.00;;;;;;;10.33;100.00;99469.09;4969701;28;20050;-46
2022/09/21 04:23:45;;;;;;;43.95;22.95;;;;;;;10.14;100.00;99424.72;4953477;28;20050;-44
2022/09/21 04:26:28;;;;;;;46.78;23.25;;;;;;;10.43;100.00;99468.69;4951725;28;20034;-47
2022/09/21 04:28:55;;;;;;;63.95;24.35;;;;;;;10.48;100.00;99458.97;4970648;28;20043;-49
2022/09/21 04:31:22;;;;;;;59.78;25.13;;;;;;;10.53;100.00;99458.78;4970041;28;20066;-44
2022/09/21 04:33:49;;;;;;;53.47;24.58;;;;;;;10.57;100.00;99456.03;4953213;28;20133;-46
2022/09/21 04:36:16;;;;;;;45.03;20.40;;;;;;;10.36;100.00;99415.28;4970240;28;20061;-46
2022/09/21 04:38:42;;;;;;;44.80;20.30;;;;;;;10.69;100.00;99461.66;4970060;28;20190;-47
2022/09/21 04:41:08;;;;;;;37.95;19.00;;;;;;;10.76;100.00;99465.72;4952377;28;20043;-45
2022/09/21 04:43:34;;;;;;;39.28;18.80;;;;;;;10.77;99.53;99459.63;4970905;28;20478;-45
2022/09/21 04:46:08;;;;;;;34.75;18.40;;;;;;;10.85;99.59;99474.03;4968660;28;20470;-45
2022/09/21 04:48:34;;;;;;;30.35;18.17;;;;;;;10.89;99.26;99474.75;4969135;28;20081;-46
2022/09/21 04:51:01;;;;;;;29.52;15.93;;;;;;;10.93;99.11;99477.19;4952605;28;20426;-45
2022/09/21 04:53:29;;;;;;;28.45;16.30;;;;;;;10.98;98.65;99477.00;4969033;28;20510;-49
2022/09/21 04:55:55;;;;;;;26.33;15.65;;;;;;;11.03;98.43;99472.47;4950405;28;20050;-43
2022/09/21 04:58:24;;;;;;;27.30;14.63;;;;;;;11.07;98.50;99474.03;4969914;28;20063;-46
2022/09/21 05:00:51;;;;;;;23.83;14.30;;;;;;;11.12;97.61;99471.25;4937174;28;20046;-48
2022/09/21 05:03:21;;;;;;;28.65;16.15;;;;;;;11.04;97.21;99458.56;4953256;28;20042;-44
2022/09/21 05:05:48;;;;;;;22.98;13.88;;;;;;;11.22;97.13;99480.38;4952474;28;20042;-47
2022/09/21 05:08:14;;;;;;;21.98;12.85;;;;;;;11.28;97.09;99485.34;4970451;28;20471;-46
2022/09/21 05:10:41;;;;;;;21.85;12.50;;;;;;;11.36;96.60;99483.25;4970388;28;20131;-46
2022/09/21 05:13:07;;;;;;;29.10;15.52;;;;;;;11.42;96.27;99496.03;4953091;28;20038;-44
2022/09/21 05:15:32;;;;;;;23.33;13.43;;;;;;;11.50;95.88;99487.91;4968871;28;20043;-48
2022/09/21 05:17:58;;;;;;;21.42;11.65;;;;;;;11.61;95.83;99486.56;4952635;28;20049;-47
2022/09/21 05:20:24;;;;;;;21.08;11.43;;;;;;;11.71;95.50;99484.41;4970409;28;20078;-46
2022/09/21 05:22:51;;;;;;;19.80;10.55;;;;;;;11.81;94.90;99498.78;4970004;28;20043;-48
2022/09/21 05:25:17;;;;;;;17.73;10.45;;;;;;;11.87;94.50;99488.94;4968287;28;20057;-47
2022/09/21 05:27:43;;;;;;;18.27;10.07;;;;;;;11.97;93.39;99488.56;4935109;28;20035;-48
2022/09/21 05:30:09;;;;;;;18.75;10.45;;;;;;;12.04;92.71;99493.41;4967596;28;20039;-46
2022/09/21 05:32:48;;;;;;;17.67;9.10;;;;;;;12.10;92.25;99490.53;4952253;28;20546;-45
2022/09/21 05:35:29;;;;;;;19.98;11.05;;;;;;;12.17;91.65;99489.38;4971378;28;20054;-44
2022/09/21 05:38:30;;;;;;;16.42;9.48;;;;;;;12.21;91.02;99487.47;4960945;28;20049;-46
2022/09/21 05:40:56;;;;;;;19.17;10.85;;;;;;;12.28;90.32;99489.75;4893592;29;20040;-48
2022/09/21 05:43:22;;;;;;;11.93;7.70;;;;;;;12.34;89.90;99486.03;4960601;28;20046;-47
2022/09/21 05:45:57;;;;;;;10.82;7.30;;;;;;;12.39;89.01;99464.97;4991324;28;20066;-46
2022/09/21 05:48:27;;;;;;;11.88;7.60;;;;;;;12.49;88.75;99480.13;4972194;28;20042;-47
2022/09/21 05:50:59;;;;;;;9.52;6.38;;;;;;;12.57;88.17;99480.59;4972137;28;20058;-45
2022/09/21 05:53:45;;;;;;;11.65;7.03;;;;;;;12.68;87.48;99483.56;4939949;28;20058;-44
2022/09/21 05:56:37;;;;;;;19.70;10.82;;;;;;;12.62;86.68;99449.94;4894669;29;20219;-47
2022/09/21 05:59:25;;;;;;;15.15;9.95;;;;;;;12.91;86.12;99485.13;4893602;29;20040;-42
2022/09/21 06:02:29;;;;;;;14.80;8.45;;;;;;;13.05;85.45;99476.63;4878008;29;20044;-43
2022/09/21 06:04:56;;;;;;;12.10;7.38;;;;;;;13.02;84.63;99443.72;4888520;29;20052;-46
2022/09/21 06:07:22;;;;;;;11.23;7.05;;;;;;;13.38;84.04;99475.03;4878754;29;20060;-46
2022/09/21 06:09:48;;;;;;;13.00;7.25;;;;;;;13.64;82.92;99478.13;4894598;29;20041;-44
2022/09/21 06:12:13;;;;;;;12.38;9.07;;;;;;;13.91;82.21;99479.34;4877449;29;20051;-45
2022/09/21 06:14:39;;;;;;;18.10;10.23;;;;;;;14.22;81.20;99481.22;4894846;29;20706;-43
2022/09/21 06:17:05;;;;;;;14.77;7.90;;;;;;;14.42;79.66;99473.19;4894591;29;20448;-45
2022/09/21 06:19:31;;;;;;;14.32;7.47;;;;;;;14.67;78.46;99470.09;4878256;29;20052;-44
2022/09/21 06:21:57;;;;;;;12.32;6.72;;;;;;;15.00;76.93;99477.88;4892385;29;20048;-42
2022/09/21 06:24:23;;;;;;;12.13;6.95;;;;;;;15.03;75.35;99460.22;4893531;29;20338;-47
2022/09/21 06:26:48;;;;;;;12.95;6.88;;;;;;;15.33;74.72;99480.38;4875570;29;20056;-44
2022/09/21 06:29:14;;;;;;;13.10;7.57;;;;;;;15.39;73.98;99480.84;4875899;29;20055;-45
2022/09/21 06:31:40;;;;;;;11.30;6.47;;;;;;;15.46;73.61;99483.97;4891074;29;20048;-46
2022/09/21 06:34:06;;;;;;;16.88;11.07;;;;;;;15.64;72.78;99488.19;4958961;28;20459;-45
2022/09/21 06:36:32;;;;;;;13.60;7.55;;;;;;;15.76;72.06;99486.63;4947025;28;20597;-46
2022/09/21 06:38:57;;;;;;;9.27;7.00;;;;;;;15.83;71.29;99485.34;4947095;28;20042;-43
2022/09/21 06:41:23;;;;;;;13.05;7.88;;;;;;;15.85;70.98;99479.09;4960096;28;20078;-46
2022/09/21 06:43:53;;;;;;;12.68;7.95;;;;;;;15.80;70.80;99485.53;4970415;28;20185;-47
2022/09/21 06:46:19;;;;;;;13.43;9.10;;;;;;;15.75;70.60;99484.94;4972055;28;20106;-42
2022/09/21 06:48:45;;;;;;;22.88;12.60;;;;;;;15.71;70.48;99484.28;4970470;28;20046;-42
2022/09/21 06:51:11;;;;;;;14.50;8.18;;;;;;;15.79;70.43;99462.88;4971200;28;20077;-44
2022/09/21 06:53:37;;;;;;;12.55;7.85;;;;;;;16.23;69.55;99482.00;4953313;28;20043;-45
2022/09/21 06:56:07;;;;;;;11.93;7.70;;;;;;;16.78;68.17;99481.28;4971591;28;20058;-44
2022/09/21 06:58:34;;;;;;;11.10;7.43;;;;;;;17.50;66.30;99480.09;4955429;28;20492;-48
2022/09/21 07:01:08;;;;;;;11.35;6.60;;;;;;;18.29;63.78;99478.22;4946902;29;20474;-44
2022/09/21 07:03:34;;;;;;;7.25;6.30;;;;;;;19.07;62.04;99488.53;4971940;28;20038;-43
2022/09/21 07:06:00;;;;;;;11.85;7.07;;;;;;;19.77;59.65;99487.69;4987858;28;20159;-45
2022/09/21 07:08:52;;;;;;;18.23;9.15;;;;;;;20.78;57.38;99493.09;4971309;28;20498;-44
2022/09/21 07:11:18;;;;;;;12.40;7.35;;;;;;;21.56;55.06;99491.13;4955332;28;20053;-44
2022/09/21 07:13:44;;;;;;;12.40;6.43;;;;;;;22.29;53.05;99485.81;4958194;28;20042;-47
2022/09/21 07:16:11;;;;;;;12.10;6.55;;;;;;;23.21;50.70;99489.22;4967390;28;20049;-50
2022/09/21 07:18:39;;;;;;;10.20;6.60;;;;;;;23.57;47.89;99467.34;4969924;28;20046;-46
2022/09/21 07:21:07;;;;;;;13.45;7.13;;;;;;;24.30;46.90;99492.41;4970754;28;20046;-47
2022/09/21 07:23:33;;;;;;;10.00;6.50;;;;;;;24.67;45.90;99489.75;4969658;28;20137;-43
2022/09/21 07:26:18;;;;;;;11.52;7.65;;;;;;;24.74;45.34;99487.34;4968990;28;20058;-48
2022/09/21 07:28:44;;;;;;;9.15;5.85;;;;;;;24.97;44.32;99485.13;4951938;28;20510;-42
2022/09/21 07:31:13;;;;;;;10.63;6.75;;;;;;;25.10;43.55;99483.81;4970687;28;20050;-46
2022/09/21 07:33:41;;;;;;;;;;;;;;;25.11;43.87;99479.34;4959955;28;20039;-44
2022/09/21 07:36:11;;;;;;;13.95;6.47;;;;;;;24.73;44.18;99485.66;4969975;28;20709;-46
2022/09/21 07:38:39;;;;;;;12.40;6.50;;;;;;;24.21;44.38;99484.47;4969768;28;20066;-45
2022/09/21 07:41:10;;;;;;;8.55;6.00;;;;;;;24.04;43.92;99478.03;4954471;28;20038;-48
2022/09/21 07:43:39;;;;;;;10.25;5.90;;;;;;;24.19;44.09;99476.63;4971202;28;20055;-47
2022/09/21 07:46:09;;;;;;;11.55;5.47;;;;;;;24.48;43.51;99479.22;4956255;28;20045;-44
2022/09/21 07:48:36;;;;;;;10.13;6.43;;;;;;;24.59;43.56;99484.34;4971555;28;20125;-46
2022/09/21 07:51:10;;;;;;;9.45;6.88;;;;;;;24.46;43.30;99473.19;4970534;28;20586;-44
2022/09/21 07:53:37;;;;;;;10.68;6.00;;;;;;;23.98;43.04;99457.34;4956196;28;20422;-52
2022/09/21 07:56:05;;;;;;;6.95;5.15;;;;;;;23.68;43.33;99479.63;4971455;28;20151;-45
2022/09/21 08:01:15;;;;;;;6.70;4.80;;;;;;;22.58;44.94;99479.78;4967552;28;20125;-50
2022/09/21 08:03:41;;;;;;;6.55;4.55;;;;;;;22.23;45.51;99481.03;4971991;28;20129;-47
2022/09/21 08:06:08;;;;;;;9.40;5.45;;;;;;;21.98;45.85;99471.66;4953982;28;20243;-48
2022/09/21 08:08:34;;;;;;;7.70;5.10;;;;;;;21.83;46.16;99451.75;4954953;28;20073;-48
2022/09/21 08:11:04;;;;;;;11.43;6.13;;;;;;;22.05;46.36;99469.34;4954552;28;20038;-47
2022/09/21 08:13:30;;;;;;;11.48;5.25;;;;;;;21.92;46.45;99447.53;4954282;28;20043;-43
2022/09/21 08:15:59;;;;;;;10.27;5.78;;;;;;;21.93;46.65;99463.25;4971057;28;20448;-45
2022/09/21 08:18:25;;;;;;;10.25;5.22;;;;;;;21.65;47.10;99463.06;4970597;28;20061;-48
2022/09/21 08:20:58;;;;;;;9.23;4.93;;;;;;;21.31;47.57;99459.72;4954056;28;20042;-45
2022/09/21 08:23:25;;;;;;;8.55;4.82;;;;;;;20.86;48.29;99438.66;4970965;28;20074;-47
2022/09/21 08:25:51;;;;;;;8.55;5.25;;;;;;;20.85;48.62;99468.69;4969515;28;20048;-44
2022/09/21 08:28:17;;;;;;;9.80;5.45;;;;;;;20.61;48.87;99470.66;4971389;28;20042;-46
2022/09/21 08:30:43;;;;;;;7.03;5.28;;;;;;;20.42;49.35;99470.41;4954250;28;20495;-43
2022/09/21 08:33:09;;;;;;;9.40;5.78;;;;;;;20.17;50.10;99467.00;4971033;28;20503;-43
2022/09/21 08:35:35;;;;;;;9.43;6.40;;;;;;;19.95;50.87;99469.59;4957606;28;20039;-47
2022/09/21 08:38:01;;;;;;;9.00;5.38;;;;;;;19.77;51.08;99463.94;4969550;28;20043;-45
2022/09/21 08:40:27;;;;;;;8.48;5.28;;;;;;;19.61;51.55;99463.41;4970778;28;20053;-48
2022/09/21 08:43:03;;;;;;;8.93;5.28;;;;;;;19.50;51.71;99460.72;4953397;28;20085;-45
2022/09/21 08:45:34;;;;;;;9.80;4.88;;;;;;;19.37;52.08;99460.75;4975346;28;20133;-45
2022/09/21 08:48:04;;;;;;;10.20;5.50;;;;;;;19.26;52.32;99447.53;4970789;28;20039;-46
2022/09/21 08:50:35;;;;;;;12.30;6.00;;;;;;;19.34;52.84;99458.38;4953959;28;20046;-49
2022/09/21 08:53:04;;;;;;;10.70;5.35;;;;;;;19.38;52.91;99458.97;4970865;28;20045;-45
2022/09/21 08:55:30;;;;;;;10.75;6.03;;;;;;;19.37;53.18;99460.75;4969988;28;20034;-47
2022/09/21 08:57:58;;;;;;;9.52;5.25;;;;;;;19.28;53.39;99457.97;4958211;28;20572;-43
2022/09/21 09:00:23;;;;;;;11.35;5.25;;;;;;;19.18;53.74;99455.16;4970545;28;20049;-45
2022/09/21 09:03:11;;;;;;;7.32;5.70;;;;;;;19.12;53.81;99449.50;4952479;28;20431;-46
2022/09/21 09:05:49;;;;;;;9.25;5.68;;;;;;;19.05;54.16;99447.31;4953056;28;20047;-47
2022/09/21 09:08:26;;;;;;;11.77;5.47;;;;;;;19.03;54.63;99449.22;4969696;28;20038;-46
2022/09/21 09:11:08;;;;;;;20.50;13.13;;;;;;;18.96;54.38;99434.81;4967663;28;20430;-47
2022/09/21 09:13:40;;;;;;;8.00;5.22;;;;;;;19.11;54.17;99442.53;4952826;28;20042;-44
2022/09/21 09:16:44;;;;;;;9.40;6.60;;;;;;;19.12;54.09;99444.22;4953058;28;20609;-46
2022/09/21 09:19:21;;;;;;;8.45;5.82;;;;;;;19.12;54.15;99446.84;4955712;28;20051;-46
2022/09/21 09:21:47;;;;;;;9.32;5.38;;;;;;;19.09;54.19;99436.56;4969931;28;20134;-46
2022/09/21 09:24:22;;;;;;;9.57;4.65;;;;;;;19.16;53.89;99443.03;4952513;28;20043;-47
2022/09/21 09:26:55;;;;;;;10.27;7.68;;;;;;;19.56;53.35;99447.09;4936359;28;20408;-45
2022/09/21 09:29:39;;;;;;;6.40;4.53;;;;;;;20.24;51.34;99448.91;4968674;28;20043;-48
2022/09/21 09:32:12;;;;;;;7.65;4.70;;;;;;;20.25;51.32;99445.31;4969823;28;20061;-46
2022/09/21 09:34:42;;;;;;;8.52;5.68;;;;;;;20.23;51.17;99441.94;4969593;28;20419;-43
2022/09/21 09:37:13;;;;;;;7.47;5.30;;;;;;;20.05;51.42;99435.44;4969307;28;20039;-44
2022/09/21 09:39:41;;;;;;;7.85;4.95;;;;;;;19.78;51.87;99433.94;4959425;28;20071;-47
2022/09/21 09:42:27;;;;;;;5.75;4.55;;;;;;;19.45;52.25;99437.34;4958982;28;20137;-48
2022/09/21 09:45:08;;;;;;;5.82;5.00;;;;;;;19.12;53.19;99431.06;4951584;28;20486;-45
2022/09/21 09:48:03;;;;;;;9.93;4.35;;;;;;;18.84;53.36;99424.34;4968406;28;20043;-46
2022/09/21 09:50:33;;;;;;;7.90;4.50;;;;;;;18.53;53.59;99399.31;4967705;28;20050;-46
2022/09/21 09:53:06;;;;;;;6.68;4.60;;;;;;;18.33;53.89;99405.16;4950542;28;20034;-45
2022/09/21 09:55:38;;;;;;;10.25;4.43;;;;;;;18.35;53.67;99424.31;4967867;28;20051;-45
2022/09/21 09:58:11;;;;;;;4.68;3.42;;;;;;;18.39;53.11;99421.34;4952029;28;20047;-45
2022/09/21 10:00:38;;;;;;;8.23;3.90;;;;;;;18.46;52.81;99414.72;4953075;28;20034;-46
2022/09/21 10:03:15;;;;;;;6.50;3.92;;;;;;;18.46;52.73;99422.63;4952739;28;20070;-41
2022/09/21 10:05:41;;;;;;;6.15;4.10;;;;;;;18.55;52.76;99426.41;4969645;28;20052;-45
2022/09/21 10:08:38;;;;;;;8.00;4.93;;;;;;;18.94;52.46;99431.47;4970171;28;20106;-43
2022/09/21 10:11:04;;;;;;;13.35;5.63;;;;;;;19.33;51.68;99427.69;4950303;28;20061;-43
2022/09/21 10:13:33;;;;;;;7.53;4.97;;;;;;;19.66;51.48;99428.78;4949831;28;20035;-43
2022/09/21 10:16:18;;;;;;;8.73;5.03;;;;;;;20.17;50.45;99437.13;4954080;28;20579;-46
2022/09/21 10:18:51;;;;;;;5.75;4.43;;;;;;;20.51;49.42;99432.72;4952077;28;20661;-45
2022/09/21 10:21:20;;;;;;;7.47;4.22;;;;;;;20.89;48.40;99403.22;4952122;28;20073;-51
2022/09/21 10:24:00;;;;;;;8.82;4.28;;;;;;;20.85;48.61;99420.28;4952161;28;20031;-45
2022/09/21 10:26:41;;;;;;;4.60;2.92;;;;;;;20.45;48.86;99404.16;4969908;28;20433;-45
2022/09/21 10:29:16;;;;;;;6.60;4.32;;;;;;;20.29;49.01;99415.06;4972176;28;20046;-52
2022/09/21 10:31:56;;;;;;;8.15;3.22;;;;;;;20.18;48.29;99415.06;4938707;28;20577;-45
2022/09/21 10:34:22;;;;;;;5.97;2.30;;;;;;;20.61;47.61;99413.38;4972077;28;20097;-47
2022/09/21 10:36:56;;;;;;;2.67;1.77;;;;;;;21.21;45.96;99417.31;4973436;28;20146;-47
2022/09/21 10:39:32;;;;;;;2.78;1.90;;;;;;;21.48;45.50;99406.25;4972988;28;20134;-48
2022/09/21 10:42:03;;;;;;;4.57;3.17;;;;;;;21.63;45.03;99404.13;4972401;28;20050;-45
2022/09/21 10:45:05;;;;;;;4.38;2.08;;;;;;;21.97;44.09;99408.28;4970433;28;20059;-46
2022/09/21 10:47:40;;;;;;;5.75;3.60;;;;;;;22.00;43.82;99402.72;4931147;28;20047;-47
2022/09/21 10:50:34;;;;;;;7.03;5.30;;;;;;;22.52;42.62;99408.78;4972385;28;20045;-43
2022/09/21 10:53:09;;;;;;;7.68;4.88;;;;;;;22.85;42.12;99412.94;4952265;28;20462;-48
2022/09/21 10:55:41;;;;;;;3.42;2.08;;;;;;;23.06;42.00;99408.38;4972723;28;20502;-49
2022/09/21 10:58:11;;;;;;;2.75;2.15;;;;;;;22.72;42.03;99405.22;4954884;28;20180;-51
2022/09/21 11:00:46;;;;;;;6.03;2.15;;;;;;;21.57;42.99;99368.44;4972281;28;20046;-48
2022/09/21 11:03:27;;;;;;;5.30;1.98;;;;;;;21.00;43.90;99404.03;4970757;28;20038;-45
2022/09/21 11:05:54;;;;;;;3.88;1.60;;;;;;;20.50;45.07;99413.41;4975025;28;20054;-46
2022/09/21 11:08:31;;;;;;;5.38;1.40;;;;;;;20.13;46.11;99404.84;4968475;28;20510;-45
2022/09/21 11:11:34;;;;;;;6.10;2.03;;;;;;;19.83;46.83;99405.44;4972879;28;20089;-47
2022/09/21 11:14:15;;;;;;;4.95;2.60;;;;;;;19.78;47.38;99417.31;4971749;28;20101;-45
2022/09/21 11:16:55;;;;;;;1.95;1.60;;;;;;;19.59;47.75;99382.72;4954366;28;20043;-46
2022/09/21 11:19:33;;;;;;;6.38;3.38;;;;;;;19.56;47.78;99414.59;4938590;28;20071;-46
2022/09/21 11:22:16;;;;;;;7.88;3.97;;;;;;;19.31;47.71;99408.47;4970505;28;20779;-45
2022/09/21 11:24:51;;;;;;;4.00;2.10;;;;;;;19.16;48.51;99404.34;4971580;28;20050;-44
2022/09/21 11:27:39;;;;;;;4.38;1.60;;;;;;;19.01;48.69;99401.06;4971125;28;20039;-48
2022/09/21 11:30:13;;;;;;;2.37;1.87;;;;;;;18.69;49.33;99383.28;4954425;28;20109;-46
2022/09/21 11:32:45;;;;;;;3.33;1.85;;;;;;;18.67;49.58;99401.00;4970497;28;20049;-46
2022/09/21 11:35:24;;;;;;;2.25;1.70;;;;;;;18.44;50.05;99395.53;4971609;28;20270;-50
2022/09/21 11:38:03;;;;;;;6.03;2.67;;;;;;;18.29;50.31;99401.91;4951243;29;20050;-49
2022/09/21 11:41:05;;;;;;;8.32;3.38;;;;;;;18.17;50.62;99392.22;4970014;28;20189;-48
2022/09/21 11:43:46;;;;;;;2.17;1.98;;;;;;;18.00;51.40;99397.84;4953936;28;20051;-46
2022/09/21 11:46:24;;;;;;;2.92;2.00;;;;;;;17.91;51.38;99399.28;4956996;28;20089;-45
2022/09/21 11:49:12;;;;;;;3.78;1.67;;;;;;;17.83;51.55;99401.63;4971671;28;20046;-45